createdAt,value
2019-03-27T00:00:20.105Z,99.90
2019-03-27T00:02:49.156Z,99.90
2019-03-27T00:05:18.177Z,99.90
2019-03-27T00:07:47.162Z,99.90
2019-03-27T00:10:16.183Z,99.90
2019-03-27T00:12:45.121Z,99.90
2019-03-27T00:15:14.423Z,99.90
2019-03-27T00:17:43.353Z,99.90
2019-03-27T00:20:12.906Z,99.90
2019-03-27T00:22:41.852Z,99.90
2019-03-27T00:25:11.359Z,99.90
2019-03-27T00:27:40.426Z,99.90
2019-03-27T00:30:10.380Z,99.90
2019-03-27T00:32:39.292Z,99.90
2019-03-27T00:35:08.696Z,99.90
2019-03-27T00:37:37.711Z,99.90
2019-03-27T00:40:07.899Z,99.90
2019-03-27T00:42:36.998Z,99.90
2019-03-27T00:45:07.669Z,99.90
2019-03-27T00:47:36.621Z,99.90
2019-03-27T00:50:07.790Z,99.90
2019-03-27T00:52:36.892Z,99.90
2019-03-27T00:55:12.194Z,99.90
2019-03-27T00:57:41.157Z,99.90
2019-03-27T01:00:19.107Z,99.90
2019-03-27T01:02:48.094Z,99.90
2019-03-27T01:05:17.023Z,99.90
2019-03-27T01:07:47.521Z,99.90
2019-03-27T01:10:20.382Z,99.90
2019-03-27T01:12:49.403Z,99.90
2019-03-27T01:15:18.323Z,99.90
2019-03-27T01:17:47.361Z,99.90
2019-03-27T01:20:16.414Z,99.90
2019-03-27T01:22:45.532Z,99.90
2019-03-27T01:25:14.546Z,99.90
2019-03-27T01:27:43.494Z,99.90
2019-03-27T01:30:12.859Z,99.90
2019-03-27T01:32:42.713Z,99.90
2019-03-27T01:35:14.730Z,99.90
2019-03-27T01:37:43.683Z,99.90
2019-03-27T01:40:12.943Z,99.90
2019-03-27T01:42:41.892Z,99.90
2019-03-27T01:45:10.963Z,99.90
2019-03-27T01:47:39.912Z,99.90
2019-03-27T01:50:09.188Z,99.90
2019-03-27T01:52:38.162Z,99.90
2019-03-27T01:55:09.916Z,99.90
2019-03-27T01:57:38.857Z,99.90
2019-03-27T02:00:08.803Z,99.90
2019-03-27T02:02:37.840Z,99.90
2019-03-27T02:05:07.318Z,99.90
2019-03-27T02:07:36.335Z,99.90
2019-03-27T02:10:11.461Z,99.90
2019-03-27T02:12:39.411Z,99.90
2019-03-27T02:15:09.480Z,99.90
2019-03-27T02:17:38.408Z,99.90
2019-03-27T02:20:08.406Z,99.90
2019-03-27T02:22:37.430Z,99.90
2019-03-27T02:25:06.596Z,99.90
2019-03-27T02:27:35.587Z,99.90
2019-03-27T02:30:06.598Z,99.90
2019-03-27T02:32:35.642Z,99.90
2019-03-27T02:35:05.539Z,99.90
2019-03-27T02:37:37.147Z,99.90
2019-03-27T02:40:07.546Z,99.90
2019-03-27T02:42:36.537Z,99.90
2019-03-27T02:45:06.445Z,99.90
2019-03-27T02:47:35.359Z,99.90
2019-03-27T02:50:06.687Z,99.90
2019-03-27T02:52:35.809Z,99.90
2019-03-27T02:55:06.921Z,99.90
2019-03-27T02:57:36.131Z,99.90
2019-03-27T03:00:10.346Z,99.90
2019-03-27T03:02:39.362Z,99.90
2019-03-27T03:05:09.669Z,99.90
2019-03-27T03:07:38.595Z,99.90
2019-03-27T03:10:09.452Z,99.90
2019-03-27T03:12:38.531Z,99.90
2019-03-27T03:15:08.921Z,99.90
2019-03-27T03:17:37.838Z,99.90
2019-03-27T03:20:09.880Z,99.90
2019-03-27T03:22:38.901Z,99.90
2019-03-27T03:25:08.214Z,99.90
2019-03-27T03:27:37.288Z,99.90
2019-03-27T03:30:10.682Z,99.90
2019-03-27T03:32:39.735Z,99.90
2019-03-27T03:35:09.765Z,99.90
2019-03-27T03:37:38.863Z,99.90
2019-03-27T03:40:09.136Z,99.90
2019-03-27T03:42:38.465Z,99.90
2019-03-27T03:45:08.451Z,99.90
2019-03-27T03:47:37.485Z,99.90
2019-03-27T03:50:12.258Z,99.90
2019-03-27T03:52:45.653Z,99.90
2019-03-27T03:55:12.071Z,99.90
2019-03-27T03:57:43.644Z,99.90
2019-03-27T04:00:12.692Z,99.90
2019-03-27T04:02:43.267Z,99.90
2019-03-27T04:05:16.039Z,99.90
2019-03-27T04:07:46.557Z,99.90
2019-03-27T04:10:17.058Z,99.90
2019-03-27T04:12:47.543Z,99.90
2019-03-27T04:15:18.084Z,99.90
2019-03-27T04:17:50.078Z,99.90
2019-03-27T04:20:19.095Z,99.90
2019-03-27T04:22:48.053Z,99.90
2019-03-27T04:25:18.690Z,99.90
2019-03-27T04:27:47.640Z,99.90
2019-03-27T04:30:16.624Z,99.90
2019-03-27T04:32:45.582Z,99.90
2019-03-27T04:35:14.514Z,99.90
2019-03-27T04:37:43.463Z,99.90
2019-03-27T04:40:12.517Z,99.90
2019-03-27T04:42:41.480Z,99.90
2019-03-27T04:45:10.538Z,99.90
2019-03-27T04:47:39.517Z,99.90
2019-03-27T04:50:08.634Z,99.90
2019-03-27T04:52:37.565Z,99.90
2019-03-27T04:55:06.762Z,99.90
2019-03-27T04:57:35.772Z,99.90
2019-03-27T05:00:06.676Z,99.90
2019-03-27T05:02:35.698Z,99.90
2019-03-27T05:05:07.170Z,99.90
2019-03-27T05:07:36.104Z,99.90
2019-03-27T05:10:06.183Z,99.90
2019-03-27T05:12:38.339Z,99.90
2019-03-27T05:15:07.609Z,99.90
2019-03-27T05:17:45.877Z,99.90
2019-03-27T05:20:07.879Z,99.90
2019-03-27T05:22:37.067Z,99.90
2019-03-27T05:25:06.558Z,99.90
2019-03-27T05:27:36.510Z,99.90
2019-03-27T05:30:06.759Z,99.90
2019-03-27T05:32:35.681Z,99.90
2019-03-27T05:35:06.784Z,99.90
2019-03-27T05:37:35.716Z,99.90
2019-03-27T05:40:07.010Z,99.90
2019-03-27T05:42:35.948Z,99.90
2019-03-27T05:45:06.149Z,99.90
2019-03-27T05:47:35.149Z,99.90
2019-03-27T05:50:05.266Z,99.90
2019-03-27T05:52:34.187Z,99.90
2019-03-27T05:55:03.297Z,99.90
2019-03-27T05:57:32.301Z,99.90
2019-03-27T06:00:01.288Z,99.90
2019-03-27T06:02:30.245Z,99.90
2019-03-27T06:04:59.228Z,99.90
2019-03-27T06:07:28.191Z,99.90
2019-03-27T06:09:57.153Z,99.90
2019-03-27T06:12:26.180Z,99.90
2019-03-27T06:14:55.138Z,99.90
2019-03-27T06:17:24.463Z,99.90
2019-03-27T06:19:53.390Z,99.90
2019-03-27T06:22:22.355Z,99.90
2019-03-27T06:24:51.302Z,99.90
2019-03-27T06:27:20.289Z,99.90
2019-03-27T06:29:49.251Z,99.90
2019-03-27T06:32:18.213Z,99.90
2019-03-27T06:34:47.130Z,99.90
2019-03-27T06:37:16.158Z,99.90
2019-03-27T06:39:45.103Z,99.90
2019-03-27T06:42:14.123Z,99.90
2019-03-27T06:44:43.068Z,99.90
2019-03-27T06:47:12.072Z,99.90
2019-03-27T06:49:41.014Z,99.90
2019-03-27T06:52:09.956Z,99.90
2019-03-27T06:54:39.224Z,99.90
2019-03-27T06:57:08.281Z,99.90
2019-03-27T06:59:37.223Z,99.90
2019-03-27T07:02:06.270Z,99.90
2019-03-27T07:04:35.221Z,99.90
2019-03-27T07:07:04.251Z,99.90
2019-03-27T07:09:33.219Z,99.90
2019-03-27T07:12:02.150Z,99.90
2019-03-27T07:14:31.122Z,99.90
2019-03-27T07:17:00.059Z,99.90
2019-03-27T07:19:29.035Z,99.90
2019-03-27T07:21:57.983Z,99.90
2019-03-27T07:24:27.021Z,99.90
2019-03-27T07:26:56.038Z,99.90
2019-03-27T07:29:25.099Z,99.90
2019-03-27T07:31:54.047Z,99.90
2019-03-27T07:34:23.011Z,99.90
2019-03-27T07:36:51.943Z,99.90
2019-03-27T07:39:20.953Z,99.90
2019-03-27T07:41:49.889Z,99.90
2019-03-27T07:44:18.848Z,99.90
2019-03-27T07:46:47.856Z,99.90
2019-03-27T07:49:16.834Z,99.90
2019-03-27T07:51:45.808Z,99.90
2019-03-27T07:54:14.858Z,99.90
2019-03-27T07:56:43.900Z,99.90
2019-03-27T07:59:12.880Z,99.90
2019-03-27T08:01:41.840Z,99.90
2019-03-27T08:04:14.125Z,99.90
2019-03-27T08:06:41.589Z,99.90
2019-03-27T08:09:10.582Z,99.90
2019-03-27T08:11:39.584Z,99.90
2019-03-27T08:14:08.712Z,99.90
2019-03-27T08:16:37.744Z,99.90
2019-03-27T08:19:08.055Z,99.90
2019-03-27T08:21:37.324Z,99.90
2019-03-27T08:24:06.339Z,99.90
2019-03-27T08:26:35.422Z,99.90
2019-03-27T08:29:04.486Z,99.90
2019-03-27T08:31:33.442Z,99.90
2019-03-27T08:34:02.537Z,99.90
2019-03-27T08:36:31.512Z,99.90
2019-03-27T08:39:00.460Z,99.90
2019-03-27T08:41:29.430Z,99.90
2019-03-27T08:43:58.429Z,99.90
2019-03-27T08:46:27.462Z,99.90
2019-03-27T08:48:56.473Z,99.90
2019-03-27T08:51:25.601Z,99.90
2019-03-27T08:53:54.546Z,99.90
2019-03-27T08:56:23.515Z,99.90
2019-03-27T08:58:52.478Z,99.90
2019-03-27T09:01:21.455Z,99.90
2019-03-27T09:03:50.395Z,99.90
2019-03-27T09:06:32.791Z,99.90
2019-03-27T09:08:50.078Z,99.90
2019-03-27T09:11:19.016Z,99.90
2019-03-27T09:13:48.205Z,99.90
2019-03-27T09:16:17.149Z,99.90
2019-03-27T09:18:46.124Z,99.90
2019-03-27T09:21:15.061Z,99.90
2019-03-27T09:23:45.814Z,99.00
2019-03-27T09:26:14.663Z,98.00
2019-03-27T09:28:43.620Z,96.60
2019-03-27T09:31:12.550Z,95.50
2019-03-27T09:33:41.562Z,95.60
2019-03-27T09:36:10.709Z,95.50
2019-03-27T09:38:39.902Z,95.00
2019-03-27T09:41:08.904Z,94.70
2019-03-27T09:43:37.897Z,95.10
2019-03-27T09:46:06.943Z,95.00
2019-03-27T09:48:35.950Z,95.20
2019-03-27T09:51:04.972Z,95.50
2019-03-27T09:53:33.982Z,95.30
2019-03-27T09:56:02.931Z,95.00
2019-03-27T09:58:31.883Z,95.50
2019-03-27T10:01:01.459Z,95.70
2019-03-27T10:03:30.491Z,95.40
2019-03-27T10:05:59.586Z,95.60
2019-03-27T10:08:28.603Z,95.00
2019-03-27T10:10:57.632Z,94.80
2019-03-27T10:13:26.575Z,94.40
2019-03-27T10:15:55.523Z,94.40
2019-03-27T10:18:24.522Z,94.00
2019-03-27T10:20:53.543Z,93.60
2019-03-27T10:23:22.491Z,93.10
2019-03-27T10:25:51.618Z,93.40
2019-03-27T10:28:20.627Z,92.70
2019-03-27T10:30:49.699Z,92.50
2019-03-27T10:33:18.738Z,92.30
2019-03-27T10:35:47.752Z,93.10
2019-03-27T10:38:16.843Z,92.40
2019-03-27T10:40:45.895Z,92.70
2019-03-27T10:43:14.899Z,92.80
2019-03-27T10:45:44.089Z,92.30
2019-03-27T10:48:13.095Z,91.50
2019-03-27T10:50:42.224Z,91.10
2019-03-27T10:53:11.166Z,88.30
2019-03-27T10:55:40.317Z,86.00
2019-03-27T10:58:09.243Z,86.10
2019-03-27T11:00:38.230Z,86.80
2019-03-27T11:03:07.159Z,87.40
2019-03-27T11:05:36.203Z,87.70
2019-03-27T11:08:05.215Z,88.90
2019-03-27T11:10:34.255Z,89.10
2019-03-27T11:13:03.362Z,90.20
2019-03-27T11:15:32.498Z,90.50
2019-03-27T11:18:01.494Z,90.50
2019-03-27T11:20:31.633Z,89.50
2019-03-27T11:23:00.934Z,85.40
2019-03-27T11:25:32.927Z,83.70
2019-03-27T11:28:00.565Z,80.90
2019-03-27T11:30:37.395Z,78.90
2019-03-27T11:33:07.095Z,75.20
2019-03-27T11:35:36.119Z,71.10
2019-03-27T11:38:05.435Z,67.80
2019-03-27T11:40:34.349Z,65.70
2019-03-27T11:43:03.947Z,64.40
2019-03-27T11:45:33.023Z,60.00
2019-03-27T11:48:02.134Z,55.10
2019-03-27T11:50:43.687Z,53.70
2019-03-27T11:53:01.868Z,53.20
2019-03-27T11:55:30.955Z,50.90
2019-03-27T11:57:59.912Z,50.20
2019-03-27T12:00:28.916Z,52.10
2019-03-27T12:02:58.024Z,56.30
2019-03-27T12:05:27.044Z,60.10
2019-03-27T12:07:56.087Z,63.00
2019-03-27T12:10:25.016Z,65.70
2019-03-27T12:12:53.987Z,68.90
2019-03-27T12:15:40.295Z,69.40
2019-03-27T12:18:10.606Z,70.30
2019-03-27T12:20:39.885Z,70.30
2019-03-27T12:23:08.874Z,69.90
2019-03-27T12:25:37.946Z,70.50
2019-03-27T12:28:07.034Z,68.00
2019-03-27T12:30:36.039Z,69.10
2019-03-27T12:33:05.241Z,70.00
2019-03-27T12:35:34.168Z,69.50
2019-03-27T12:38:04.506Z,71.50
2019-03-27T12:40:33.601Z,70.30
2019-03-27T12:43:02.570Z,70.30
2019-03-27T12:45:31.536Z,71.00
2019-03-27T12:48:00.536Z,71.10
2019-03-27T12:50:29.495Z,71.30
2019-03-27T12:52:58.439Z,70.80
2019-03-27T12:55:27.454Z,61.60
2019-03-27T12:57:56.467Z,52.90
2019-03-27T13:00:25.581Z,46.60
2019-03-27T13:02:54.884Z,46.80
2019-03-27T13:05:23.860Z,52.30
2019-03-27T13:07:53.240Z,56.80
2019-03-27T13:10:22.200Z,58.50
2019-03-27T13:12:51.135Z,60.90
2019-03-27T13:15:20.167Z,62.50
2019-03-27T13:17:49.201Z,60.50
2019-03-27T13:20:18.460Z,58.10
2019-03-27T13:22:47.455Z,54.00
2019-03-27T13:25:16.511Z,52.80
2019-03-27T13:27:47.455Z,51.40
2019-03-27T13:30:16.398Z,49.70
2019-03-27T13:32:45.446Z,49.50
2019-03-27T13:35:15.998Z,45.00
2019-03-27T13:37:45.028Z,46.20
2019-03-27T13:40:15.134Z,46.00
2019-03-27T13:42:44.104Z,48.10
2019-03-27T13:45:14.855Z,50.10
2019-03-27T13:47:44.855Z,49.90
2019-03-27T13:50:16.607Z,48.60
2019-03-27T13:52:45.634Z,49.50
2019-03-27T13:55:14.754Z,51.30
2019-03-27T13:57:43.695Z,55.00
2019-03-27T14:00:14.146Z,56.80
2019-03-27T14:02:43.243Z,57.90
2019-03-27T14:05:13.419Z,59.80
2019-03-27T14:07:42.612Z,60.20
2019-03-27T14:10:11.887Z,61.40
2019-03-27T14:12:40.857Z,63.50
2019-03-27T14:15:10.342Z,64.80
2019-03-27T14:17:39.453Z,66.00
2019-03-27T14:20:09.427Z,67.30
2019-03-27T14:22:38.478Z,68.90
2019-03-27T14:25:09.536Z,71.80
2019-03-27T14:27:38.638Z,71.50
2019-03-27T14:30:10.329Z,71.70
2019-03-27T14:32:39.377Z,70.60
2019-03-27T14:35:08.951Z,71.20
2019-03-27T14:37:37.883Z,70.50
2019-03-27T14:40:08.814Z,67.80
2019-03-27T14:42:37.992Z,67.50
2019-03-27T14:45:08.769Z,64.00
2019-03-27T14:47:37.872Z,64.80
2019-03-27T14:50:08.610Z,62.60
2019-03-27T14:52:37.592Z,61.60
2019-03-27T14:55:07.904Z,63.10
2019-03-27T14:57:37.794Z,62.00
2019-03-27T15:00:09.638Z,61.60
2019-03-27T15:02:38.708Z,62.20
2019-03-27T15:05:10.213Z,63.40
2019-03-27T15:07:39.217Z,61.60
2019-03-27T15:10:09.324Z,60.20
2019-03-27T15:12:38.325Z,57.30
2019-03-27T15:15:08.809Z,55.10
2019-03-27T15:17:37.910Z,54.60
2019-03-27T15:20:10.772Z,53.50
2019-03-27T15:22:39.755Z,54.60
2019-03-27T15:25:09.164Z,55.40
2019-03-27T15:27:38.163Z,56.10
2019-03-27T15:30:13.029Z,59.30
2019-03-27T15:32:40.747Z,61.10
2019-03-27T15:35:09.777Z,63.80
2019-03-27T15:37:38.707Z,66.10
2019-03-27T15:40:08.035Z,67.20
2019-03-27T15:42:37.447Z,67.40
2019-03-27T15:45:08.035Z,68.30
2019-03-27T15:47:36.992Z,68.50
2019-03-27T15:50:06.597Z,68.30
2019-03-27T15:52:37.017Z,68.60
2019-03-27T15:55:06.621Z,69.50
2019-03-27T15:57:35.737Z,70.70
2019-03-27T16:00:06.316Z,70.60
2019-03-27T16:02:35.274Z,72.00
2019-03-27T16:05:05.857Z,72.60
2019-03-27T16:07:34.872Z,73.80
2019-03-27T16:10:06.163Z,75.00
2019-03-27T16:12:36.476Z,76.30
2019-03-27T16:15:07.989Z,76.10
2019-03-27T16:17:37.001Z,76.30
2019-03-27T16:20:07.595Z,75.40
2019-03-27T16:22:49.880Z,75.30
2019-03-27T16:25:09.989Z,75.40
2019-03-27T16:27:39.150Z,76.10
2019-03-27T16:30:08.878Z,77.50
2019-03-27T16:32:38.183Z,78.40
2019-03-27T16:35:08.741Z,79.20
2019-03-27T16:37:38.104Z,79.50
2019-03-27T16:40:12.571Z,80.20
2019-03-27T16:42:41.674Z,80.50
2019-03-27T16:45:11.413Z,81.10
2019-03-27T16:47:40.518Z,81.40
2019-03-27T16:50:11.811Z,82.10
2019-03-27T16:52:40.916Z,82.50
2019-03-27T16:55:10.305Z,82.20
2019-03-27T16:57:39.265Z,82.60
2019-03-27T17:00:08.560Z,83.60
2019-03-27T17:02:37.577Z,84.10
2019-03-27T17:05:08.183Z,84.40
2019-03-27T17:07:37.162Z,85.20
2019-03-27T17:10:06.979Z,85.20
2019-03-27T17:12:35.993Z,85.40
2019-03-27T17:15:06.516Z,85.70
2019-03-27T17:17:35.602Z,85.80
2019-03-27T17:20:10.430Z,86.70
2019-03-27T17:22:39.504Z,87.20
2019-03-27T17:25:09.021Z,87.30
2019-03-27T17:27:38.133Z,87.40
2019-03-27T17:30:09.453Z,87.40
2019-03-27T17:32:38.408Z,88.00
2019-03-27T17:35:07.503Z,88.30
2019-03-27T17:37:36.462Z,87.70
2019-03-27T17:40:07.036Z,89.20
2019-03-27T17:42:35.955Z,89.10
2019-03-27T17:45:07.568Z,89.00
2019-03-27T17:47:36.515Z,90.00
2019-03-27T17:50:06.130Z,89.60
2019-03-27T17:52:37.972Z,89.20
2019-03-27T17:55:07.436Z,89.70
2019-03-27T17:57:36.534Z,89.70
2019-03-27T18:00:11.003Z,90.30
2019-03-27T18:02:40.052Z,90.20
2019-03-27T18:05:09.292Z,90.30
2019-03-27T18:07:38.862Z,90.40
2019-03-27T18:10:08.278Z,90.60
2019-03-27T18:12:37.403Z,90.60
2019-03-27T18:15:07.505Z,90.80
2019-03-27T18:17:36.530Z,91.00
2019-03-27T18:20:05.741Z,90.70
2019-03-27T18:22:35.297Z,91.10
2019-03-27T18:25:05.532Z,91.10
2019-03-27T18:27:34.531Z,90.90
2019-03-27T18:30:04.838Z,91.00
2019-03-27T18:32:33.785Z,91.00
2019-03-27T18:35:02.728Z,91.20
2019-03-27T18:37:31.724Z,91.50
2019-03-27T18:40:00.828Z,91.60
2019-03-27T18:42:29.887Z,91.30
2019-03-27T18:44:58.890Z,91.70
2019-03-27T18:47:27.832Z,91.50
2019-03-27T18:49:56.905Z,91.60
2019-03-27T18:52:25.882Z,91.60
2019-03-27T18:54:54.827Z,91.60
2019-03-27T18:57:23.827Z,91.80
2019-03-27T18:59:52.853Z,91.60
2019-03-27T19:02:21.916Z,91.70
2019-03-27T19:04:51.062Z,91.80
2019-03-27T19:07:20.107Z,92.00
2019-03-27T19:09:49.087Z,91.90
2019-03-27T19:12:18.049Z,92.20
2019-03-27T19:14:47.093Z,92.60
2019-03-27T19:17:16.066Z,92.10
2019-03-27T19:19:45.106Z,92.30
2019-03-27T19:22:14.131Z,92.30
2019-03-27T19:24:43.135Z,92.30
2019-03-27T19:27:12.070Z,92.50
2019-03-27T19:29:41.058Z,92.60
2019-03-27T19:32:09.974Z,93.10
2019-03-27T19:34:39.053Z,92.90
2019-03-27T19:37:08.001Z,93.00
2019-03-27T19:39:37.041Z,93.00
2019-03-27T19:42:06.131Z,93.10
2019-03-27T19:44:35.122Z,93.20
2019-03-27T19:47:04.169Z,93.30
2019-03-27T19:49:33.217Z,93.20
2019-03-27T19:52:02.160Z,93.10
2019-03-27T19:54:31.212Z,92.90
2019-03-27T19:57:00.240Z,93.10
2019-03-27T19:59:29.314Z,92.70
2019-03-27T20:01:58.430Z,92.60
2019-03-27T20:04:27.524Z,92.50
2019-03-27T20:06:56.551Z,92.60
2019-03-27T20:09:25.599Z,92.80
2019-03-27T20:11:54.664Z,92.70
2019-03-27T20:14:23.616Z,92.50
2019-03-27T20:16:52.579Z,92.60
2019-03-27T20:19:21.513Z,92.70
2019-03-27T20:21:50.502Z,92.80
2019-03-27T20:24:19.495Z,92.60
2019-03-27T20:26:51.149Z,92.70
2019-03-27T20:29:19.136Z,92.60
2019-03-27T20:31:48.096Z,92.60
2019-03-27T20:34:17.125Z,92.60
2019-03-27T20:36:49.220Z,92.70
2019-03-27T20:39:18.179Z,92.70
2019-03-27T20:41:47.262Z,92.70
2019-03-27T20:44:16.300Z,92.70
2019-03-27T20:46:45.327Z,92.80
2019-03-27T20:49:14.302Z,92.90
2019-03-27T20:51:43.417Z,93.10
2019-03-27T20:54:12.455Z,93.10
2019-03-27T20:56:41.435Z,93.00
2019-03-27T20:59:10.441Z,93.00
2019-03-27T21:01:39.401Z,92.90
2019-03-27T21:04:08.321Z,93.00
2019-03-27T21:06:38.944Z,93.00
2019-03-27T21:09:10.473Z,93.10
2019-03-27T21:11:39.460Z,93.10
2019-03-27T21:14:08.408Z,93.30
2019-03-27T21:16:41.285Z,93.40
2019-03-27T21:19:10.285Z,93.30
2019-03-27T21:21:41.782Z,93.40
2019-03-27T21:24:12.941Z,93.40
2019-03-27T21:26:41.859Z,93.30
2019-03-27T21:29:12.366Z,93.40
2019-03-27T21:31:43.903Z,93.90
2019-03-27T21:34:12.900Z,94.10
2019-03-27T21:36:41.904Z,94.50
2019-03-27T21:39:10.862Z,94.60
2019-03-27T21:41:39.795Z,94.80
2019-03-27T21:44:08.759Z,95.40
2019-03-27T21:46:37.727Z,95.50
2019-03-27T21:49:06.708Z,96.70
2019-03-27T21:51:35.640Z,97.30
2019-03-27T21:54:04.746Z,97.70
2019-03-27T21:56:33.687Z,98.30
2019-03-27T21:59:02.756Z,98.30
2019-03-27T22:01:31.687Z,98.10
2019-03-27T22:04:00.653Z,98.10
2019-03-27T22:06:29.722Z,98.70
2019-03-27T22:08:58.813Z,99.50
2019-03-27T22:11:27.769Z,99.70
2019-03-27T22:13:56.719Z,99.90
2019-03-27T22:16:27.542Z,99.90
2019-03-27T22:18:56.501Z,99.90
2019-03-27T22:21:25.430Z,99.90
2019-03-27T22:23:54.409Z,99.90
2019-03-27T22:26:23.366Z,99.90
2019-03-27T22:28:52.384Z,99.90
2019-03-27T22:31:21.328Z,99.90
2019-03-27T22:33:50.264Z,99.90
2019-03-27T22:36:19.234Z,99.90
2019-03-27T22:38:48.163Z,99.90
2019-03-27T22:41:17.111Z,99.90
2019-03-27T22:43:46.115Z,99.90
2019-03-27T22:46:15.091Z,99.90
2019-03-27T22:48:44.015Z,99.90
2019-03-27T22:51:12.971Z,99.90
2019-03-27T22:53:41.906Z,99.90
2019-03-27T22:56:10.970Z,99.90
2019-03-27T22:58:39.899Z,99.90
2019-03-27T23:01:08.925Z,99.90
2019-03-27T23:03:37.876Z,99.90
2019-03-27T23:06:06.914Z,99.90
2019-03-27T23:08:35.843Z,99.90
2019-03-27T23:11:05.518Z,99.90
2019-03-27T23:13:34.435Z,99.90
2019-03-27T23:16:05.039Z,99.90
2019-03-27T23:18:33.968Z,99.90
2019-03-27T23:21:03.173Z,99.90
2019-03-27T23:23:32.178Z,99.90
2019-03-27T23:26:03.238Z,99.90
2019-03-27T23:28:31.764Z,99.90
2019-03-27T23:31:00.765Z,99.90
2019-03-27T23:33:32.487Z,99.90
2019-03-27T23:36:01.445Z,99.90
2019-03-27T23:38:30.398Z,99.90
2019-03-27T23:40:59.308Z,99.90
2019-03-27T23:43:28.281Z,99.90
2019-03-27T23:45:57.204Z,99.90
2019-03-27T23:48:26.161Z,99.90
2019-03-27T23:50:55.080Z,99.90
2019-03-27T23:53:24.032Z,99.90
2019-03-27T23:55:54.612Z,99.90
2019-03-27T23:58:23.567Z,99.90
